Portada
METAR-TAF:

METAR-TAF

Aeropuertos :

Aeropuerto Internacional de Bagdad

Bagdad, Iraq

latitud: 33-15-45N, longitud: 44-14-04E, altitud: 35 m

Observación

El informe se hizo hace 44 minutos, a las 14:00 UTC
Viento 4 kt del suroeste, variando entre sur y oeste-suroeste
Temperatura 30°C
Humedad 24%
Presión 1006 hPa
Visibilidad 10 km o más
Nubes dispersas a una altura de 3500 ft

METAR: ORBI 011400Z 22004KT 190V250 9999 SCT035 30/07 Q1006 NOSIG

Hora: 17:44 (14:44 UTC)

Pronóstico

El informe se hizo hace 4 horas y 44 minutos, a las 10:00 UTC
Pronóstico válido del 01 a las 12 UTC al 02 a las 12 UTC
Viento 16 kt del sur-sureste
Visibilidad: 5000 m

TAF: ORBI 011000Z 0112/0212 15016KT 5000 NSC

Observaciones y pronósticos meteorológicos de más de 4000 aeropuertos (mensajes METAR y TAF).

Los puntos amarillos y rojos representan las estaciones disponibles.

Ponga el ratón en el punto deseado para ver el nombre de la estación.

Haga clic para ver las observaciones y los pronósticos meteorológicos.

Para cambiar el mapa : haga clic en los botones verdes con una cruz de color negro para hacer un zoom, en el botón verde con un guión para alejar o en las flechas verdes para mapas adyacentes.


METAR-TAF: